Time;durP1;ratioP1;P1;durP2;ratioP2;P2;SDS_P1;SDS_P2;PMS_P1;PMS_P2;Temp;Humidity;BMP_temperature;BMP_pressure;BME280_temperature;BME280_humidity;BME280_pressure;Samples;Min_cycle;Max_cycle;Signal;HPM_P1;HPM_P2
2023/12/02 00:02:05;;;;;;;64.18;29.02;;;1.70;99.90;;;;;;5060812;28;20041;-78
2023/12/02 00:04:32;;;;;;;67.32;28.02;;;1.60;99.90;;;;;;5051368;28;20081;-80
2023/12/02 00:06:59;;;;;;;65.85;28.58;;;1.60;99.90;;;;;;5052435;28;20041;-77
2023/12/02 00:09:25;;;;;;;61.83;27.92;;;1.50;99.90;;;;;;5051179;28;20489;-78
2023/12/02 00:11:52;;;;;;;62.40;27.67;;;1.50;99.90;;;;;;5035291;28;20081;-79
2023/12/02 00:14:19;;;;;;;68.97;29.30;;;1.50;99.90;;;;;;5053281;28;20122;-82
2023/12/02 00:16:46;;;;;;;63.03;28.92;;;1.50;99.90;;;;;;5041040;28;20084;-79
2023/12/02 00:19:12;;;;;;;55.80;24.15;;;1.50;99.90;;;;;;5052684;28;20041;-79
2023/12/02 00:21:39;;;;;;;67.03;28.25;;;1.50;99.90;;;;;;5040025;28;20546;-81
2023/12/02 00:24:06;;;;;;;72.70;30.73;;;1.60;99.90;;;;;;5052713;28;20045;-79
2023/12/02 00:26:33;;;;;;;76.13;30.73;;;1.70;99.90;;;;;;5049887;28;20095;-79
2023/12/02 00:29:00;;;;;;;91.72;31.02;;;1.80;99.90;;;;;;5055717;28;20068;-78
2023/12/02 00:31:26;;;;;;;106.88;32.47;;;1.80;99.90;;;;;;5045794;28;20049;-77
2023/12/02 00:33:53;;;;;;;99.85;30.40;;;1.80;99.90;;;;;;5054011;28;20048;-80
2023/12/02 00:36:20;;;;;;;93.28;29.63;;;1.80;99.90;;;;;;5049498;28;20045;-79
2023/12/02 00:38:46;;;;;;;73.40;30.08;;;1.80;99.90;;;;;;5051201;28;20575;-79
2023/12/02 00:41:13;;;;;;;95.07;32.03;;;1.80;99.90;;;;;;5050786;28;20048;-79
2023/12/02 00:43:40;;;;;;;73.78;30.80;;;1.80;99.90;;;;;;5052060;28;20045;-78
2023/12/02 00:46:07;;;;;;;83.82;30.48;;;1.80;99.90;;;;;;5053627;28;20102;-79
2023/12/02 00:48:34;;;;;;;75.65;30.80;;;1.80;99.90;;;;;;5050816;28;20053;-80
2023/12/02 00:51:01;;;;;;;71.22;31.02;;;1.90;99.90;;;;;;5052867;28;20132;-79
2023/12/02 00:53:28;;;;;;;76.03;30.80;;;1.90;99.90;;;;;;5049564;28;20057;-81
2023/12/02 00:55:54;;;;;;;71.82;28.95;;;1.90;99.90;;;;;;5052354;28;20483;-80
2023/12/02 00:58:21;;;;;;;49.60;22.30;;;1.90;99.90;;;;;;5048385;28;20041;-78
2023/12/02 01:01:01;;;;;;;;;;;1.70;99.90;;;;;;5051931;28;20041;-80
2023/12/02 01:03:28;;;;;;;53.80;23.45;;;1.70;99.90;;;;;;5044708;28;19925;-80
2023/12/02 01:05:55;;;;;;;53.28;24.73;;;1.70;99.90;;;;;;5054269;28;20041;-79
2023/12/02 01:08:22;;;;;;;49.40;23.40;;;1.60;99.90;;;;;;5050499;28;20052;-79
2023/12/02 01:10:48;;;;;;;58.33;27.35;;;1.60;99.90;;;;;;5034600;28;20045;-78
2023/12/02 01:13:15;;;;;;;57.50;25.35;;;1.60;99.90;;;;;;5049783;28;20119;-79
2023/12/02 01:15:42;;;;;;;54.38;26.10;;;1.60;99.90;;;;;;5051088;28;20045;-81
2023/12/02 01:18:08;;;;;;;57.67;26.02;;;1.50;99.90;;;;;;5052074;28;20052;-78
2023/12/02 01:20:35;;;;;;;60.90;27.08;;;1.50;99.90;;;;;;5050252;28;20421;-80
2023/12/02 01:23:02;;;;;;;61.50;27.23;;;1.60;99.90;;;;;;5052112;28;20087;-80
2023/12/02 01:25:29;;;;;;;61.80;27.10;;;1.70;99.90;;;;;;5028676;28;20108;-79
2023/12/02 01:27:55;;;;;;;77.15;28.77;;;1.60;99.90;;;;;;5052434;28;20114;-79
2023/12/02 01:30:22;;;;;;;57.03;24.55;;;1.70;99.90;;;;;;5026908;28;20061;-79
2023/12/02 01:32:49;;;;;;;59.20;26.20;;;1.70;99.90;;;;;;5054352;28;20100;-79
2023/12/02 01:35:16;;;;;;;63.72;26.35;;;1.60;99.90;;;;;;5047603;28;20128;-79
2023/12/02 01:37:42;;;;;;;57.47;24.48;;;1.50;99.90;;;;;;5053378;28;20049;-80
2023/12/02 01:40:12;;;;;;;62.30;27.90;;;1.50;99.90;;;;;;5050111;28;20041;-80
2023/12/02 01:42:39;;;;;;;65.93;27.83;;;1.60;99.90;;;;;;5032622;28;20050;-77
2023/12/02 01:45:06;;;;;;;55.60;26.15;;;1.50;99.90;;;;;;5050669;28;20041;-80
2023/12/02 01:47:33;;;;;;;61.10;27.50;;;1.40;99.90;;;;;;5051160;28;20064;-81
2023/12/02 01:50:01;;;;;;;59.17;26.60;;;1.50;99.90;;;;;;5032465;28;20041;-79
2023/12/02 01:52:27;;;;;;;60.63;27.88;;;1.50;99.90;;;;;;5031916;28;20064;-82
2023/12/02 01:54:54;;;;;;;63.53;28.55;;;1.50;99.90;;;;;;5051980;28;20041;-80
2023/12/02 01:57:22;;;;;;;65.10;27.23;;;1.50;99.90;;;;;;5048925;28;20061;-79
2023/12/02 01:59:53;;;;;;;65.47;28.33;;;1.50;99.90;;;;;;5050410;28;20041;-80
2023/12/02 02:02:20;;;;;;;62.38;29.77;;;1.50;99.90;;;;;;5049091;28;20038;-81
2023/12/02 02:04:48;;;;;;;60.47;27.88;;;1.50;99.90;;;;;;5040463;28;20095;-79
2023/12/02 02:07:15;;;;;;;58.90;28.42;;;1.60;99.90;;;;;;5048678;28;20106;-79
2023/12/02 02:09:48;;;;;;;57.53;27.83;;;1.60;99.90;;;;;;5052629;28;20103;-79
2023/12/02 02:12:16;;;;;;;55.00;25.63;;;1.60;99.90;;;;;;5033937;28;20103;-81
2023/12/02 02:14:43;;;;;;;52.30;24.80;;;1.60;99.90;;;;;;5052675;28;20049;-81
2023/12/02 02:17:10;;;;;;;58.17;27.02;;;1.50;99.90;;;;;;5033507;28;20073;-79
2023/12/02 02:19:37;;;;;;;52.78;25.13;;;1.50;99.90;;;;;;5031566;28;20046;-80
2023/12/02 02:22:04;;;;;;;53.97;26.33;;;1.40;99.90;;;;;;5049480;28;20049;-77
2023/12/02 02:24:30;;;;;;;56.83;26.85;;;1.50;99.90;;;;;;5049707;28;20049;-79
2023/12/02 02:26:57;;;;;;;52.85;26.48;;;1.50;99.90;;;;;;5050303;28;20051;-79
2023/12/02 02:29:24;;;;;;;54.85;24.20;;;1.40;99.90;;;;;;5049700;28;20060;-79
2023/12/02 02:31:51;;;;;;;53.28;25.85;;;1.40;99.90;;;;;;5051542;28;20049;-80
2023/12/02 02:34:18;;;;;;;51.70;24.90;;;1.50;99.90;;;;;;5048803;28;20071;-80
2023/12/02 02:36:45;;;;;;;51.85;25.08;;;1.50;99.90;;;;;;5052756;28;20041;-80
2023/12/02 02:39:11;;;;;;;51.53;25.33;;;1.50;99.90;;;;;;5031528;28;20049;-80
2023/12/02 02:41:39;;;;;;;49.60;24.00;;;1.50;99.90;;;;;;5051623;28;20049;-80
2023/12/02 02:44:06;;;;;;;52.75;26.38;;;1.50;99.90;;;;;;5048438;28;20037;-80
2023/12/02 02:46:32;;;;;;;54.95;24.98;;;1.50;99.90;;;;;;5038636;28;20041;-80
2023/12/02 02:48:59;;;;;;;51.10;25.45;;;1.50;99.90;;;;;;5049271;28;20045;-79
2023/12/02 02:51:26;;;;;;;50.28;25.20;;;1.50;99.90;;;;;;5051694;28;20046;-81
2023/12/02 02:53:53;;;;;;;45.10;22.98;;;1.50;99.90;;;;;;5048955;28;20056;-80
2023/12/02 02:56:20;;;;;;;44.70;24.50;;;1.40;99.90;;;;;;5045153;28;20044;-81
2023/12/02 02:58:47;;;;;;;46.70;23.02;;;1.40;99.90;;;;;;5054374;28;20049;-79
2023/12/02 03:01:14;;;;;;;46.85;23.90;;;1.40;99.90;;;;;;5068881;28;20049;-79
2023/12/02 03:03:40;;;;;;;40.78;22.45;;;1.30;99.90;;;;;;5054240;28;20041;-81
2023/12/02 03:06:08;;;;;;;49.97;24.65;;;1.30;99.90;;;;;;5054523;28;20051;-78
2023/12/02 03:08:35;;;;;;;53.58;25.58;;;1.20;99.90;;;;;;5040701;28;20053;-79
2023/12/02 03:11:02;;;;;;;48.47;24.38;;;1.20;99.90;;;;;;5054185;28;20057;-79
2023/12/02 03:13:29;;;;;;;45.92;23.13;;;1.20;99.90;;;;;;5050159;28;20057;-79
2023/12/02 03:15:56;;;;;;;48.50;26.05;;;1.10;99.90;;;;;;5052550;28;20045;-79
2023/12/02 03:18:23;;;;;;;49.10;25.02;;;1.20;99.90;;;;;;5056052;28;20056;-79
2023/12/02 03:20:50;;;;;;;38.90;21.40;;;1.20;99.90;;;;;;5050728;28;20108;-78
2023/12/02 03:23:16;;;;;;;39.60;21.13;;;1.20;99.90;;;;;;5054929;28;20068;-78
2023/12/02 03:25:43;;;;;;;32.33;18.17;;;1.20;99.90;;;;;;5050330;28;20041;-80
2023/12/02 03:28:12;;;;;;;39.97;22.02;;;1.00;99.90;;;;;;5056193;28;20071;-80
2023/12/02 03:30:38;;;;;;;39.33;21.10;;;1.00;99.90;;;;;;5049287;28;20049;-77
2023/12/02 03:33:06;;;;;;;37.95;21.80;;;0.90;99.90;;;;;;5055218;28;20049;-79
2023/12/02 03:35:32;;;;;;;42.35;22.30;;;0.90;99.90;;;;;;5051548;28;20048;-79
2023/12/02 03:37:59;;;;;;;36.55;20.40;;;0.90;99.90;;;;;;5051736;28;20068;-82
2023/12/02 03:40:26;;;;;;;34.35;19.52;;;0.80;99.90;;;;;;5034110;28;20041;-79
2023/12/02 03:42:53;;;;;;;33.58;18.63;;;0.80;99.90;;;;;;5051852;28;20053;-78
2023/12/02 03:45:21;;;;;;;34.97;19.20;;;0.80;99.90;;;;;;5041270;28;20041;-81
2023/12/02 03:47:48;;;;;;;34.95;19.85;;;0.70;99.90;;;;;;5034940;28;20045;-81
2023/12/02 03:50:14;;;;;;;36.38;19.77;;;0.70;99.90;;;;;;5036448;28;20115;-79
2023/12/02 03:52:46;;;;;;;35.03;20.17;;;0.70;99.90;;;;;;5050963;28;20049;-80
2023/12/02 03:55:13;;;;;;;39.85;19.30;;;0.70;99.90;;;;;;5056421;28;20099;-78
2023/12/02 03:57:40;;;;;;;33.08;19.08;;;0.80;99.90;;;;;;5048488;28;20076;-79
2023/12/02 04:00:19;;;;;;;34.00;18.45;;;0.70;99.90;;;;;;5054455;28;20390;-79
2023/12/02 04:02:46;;;;;;;33.70;18.37;;;0.70;99.90;;;;;;5046630;28;20485;-78
2023/12/02 04:05:15;;;;;;;28.92;15.68;;;0.60;99.90;;;;;;5054560;28;20041;-81
2023/12/02 04:07:42;;;;;;;29.52;17.27;;;0.50;99.90;;;;;;5051359;28;20463;-81
2023/12/02 04:10:09;;;;;;;31.23;16.20;;;0.50;99.90;;;;;;5053031;28;20044;-77
2023/12/02 04:12:36;;;;;;;30.42;17.77;;;0.50;99.90;;;;;;5053631;28;20057;-78
2023/12/02 04:15:04;;;;;;;27.58;17.48;;;0.50;99.90;;;;;;5048927;28;20132;-79
2023/12/02 04:17:31;;;;;;;27.00;15.45;;;0.50;99.90;;;;;;5036137;28;20056;-80
2023/12/02 04:19:58;;;;;;;29.85;17.65;;;0.50;99.90;;;;;;5035173;28;20047;-79
2023/12/02 04:22:25;;;;;;;31.38;16.92;;;0.40;99.90;;;;;;5055375;28;20057;-78
2023/12/02 04:24:51;;;;;;;27.42;16.08;;;0.50;99.90;;;;;;5030503;28;20468;-79
2023/12/02 04:27:18;;;;;;;25.02;15.23;;;0.50;99.90;;;;;;5055895;28;20044;-77
2023/12/02 04:29:45;;;;;;;23.30;13.65;;;0.50;99.90;;;;;;5031949;28;20129;-80
2023/12/02 04:32:12;;;;;;;25.90;14.57;;;0.50;99.90;;;;;;5055860;28;20562;-81
2023/12/02 04:34:38;;;;;;;24.15;14.07;;;0.40;99.90;;;;;;5050499;28;20142;-79
2023/12/02 04:37:05;;;;;;;25.92;15.93;;;0.40;99.90;;;;;;5054326;28;20048;-79
2023/12/02 04:39:33;;;;;;;28.85;15.07;;;0.50;99.90;;;;;;5052421;28;20041;-79
2023/12/02 04:42:00;;;;;;;29.52;17.00;;;0.40;99.90;;;;;;5056376;28;20077;-79
2023/12/02 04:44:27;;;;;;;25.70;14.05;;;0.50;99.90;;;;;;5051287;28;20072;-79
2023/12/02 04:46:54;;;;;;;23.48;13.95;;;0.40;99.90;;;;;;5051086;28;20049;-79
2023/12/02 04:49:20;;;;;;;22.00;13.73;;;0.30;99.90;;;;;;5036113;28;20041;-81
2023/12/02 04:51:47;;;;;;;20.83;12.73;;;0.40;99.90;;;;;;5058319;28;20049;-80
2023/12/02 04:54:14;;;;;;;20.02;12.52;;;0.40;99.90;;;;;;5038201;28;20052;-81
2023/12/02 04:56:41;;;;;;;20.52;13.18;;;0.30;99.90;;;;;;5048820;28;20049;-81
2023/12/02 04:59:08;;;;;;;23.63;13.32;;;0.30;99.90;;;;;;5039659;28;20045;-81
2023/12/02 05:01:34;;;;;;;21.20;13.48;;;0.30;99.90;;;;;;5050990;28;20084;-80
2023/12/02 05:04:01;;;;;;;22.42;13.85;;;0.30;99.90;;;;;;5054109;28;20045;-79
2023/12/02 05:06:29;;;;;;;21.90;13.27;;;0.20;99.90;;;;;;5030437;28;20673;-79
2023/12/02 05:08:57;;;;;;;20.48;12.98;;;0.20;99.90;;;;;;5054672;28;20052;-81
2023/12/02 05:11:24;;;;;;;23.58;13.60;;;0.30;99.90;;;;;;5032598;28;20049;-77
2023/12/02 05:13:51;;;;;;;18.98;11.70;;;0.30;99.90;;;;;;5032510;28;20049;-80
2023/12/02 05:16:18;;;;;;;21.35;13.77;;;0.30;99.90;;;;;;5049979;28;20072;-79
2023/12/02 05:18:45;;;;;;;20.15;12.57;;;0.20;99.90;;;;;;5029515;28;20457;-81
2023/12/02 05:21:12;;;;;;;20.77;14.13;;;0.20;99.90;;;;;;5057207;28;20037;-80
2023/12/02 05:23:40;;;;;;;22.00;13.77;;;0.20;99.90;;;;;;5049104;28;20053;-80
2023/12/02 05:26:08;;;;;;;22.45;14.82;;;0.20;99.90;;;;;;5039750;28;20041;-80
2023/12/02 05:28:35;;;;;;;21.15;12.68;;;0.20;99.90;;;;;;5050045;28;20075;-81
2023/12/02 05:31:02;;;;;;;21.63;13.00;;;0.30;99.90;;;;;;5054268;28;20053;-81
2023/12/02 05:33:29;;;;;;;25.33;14.35;;;0.30;99.90;;;;;;5050039;28;20114;-79
2023/12/02 05:35:56;;;;;;;22.13;13.23;;;0.30;99.90;;;;;;5039573;28;20406;-83
2023/12/02 05:38:23;;;;;;;24.65;14.55;;;0.30;99.90;;;;;;5046361;28;20049;-79
2023/12/02 05:40:49;;;;;;;23.42;14.18;;;0.30;99.90;;;;;;5052826;28;20075;-77
2023/12/02 05:43:16;;;;;;;21.15;12.00;;;0.30;99.90;;;;;;5052467;28;20079;-80
2023/12/02 05:45:43;;;;;;;25.20;14.02;;;0.20;99.90;;;;;;5051394;28;20053;-80
2023/12/02 05:48:09;;;;;;;21.73;12.50;;;0.20;99.90;;;;;;5031620;28;20063;-81
2023/12/02 05:50:36;;;;;;;23.27;13.40;;;0.20;99.90;;;;;;5036540;28;20497;-82
2023/12/02 05:53:04;;;;;;;22.58;13.82;;;0.20;99.90;;;;;;5052679;28;20057;-79
2023/12/02 05:55:31;;;;;;;20.75;13.07;;;0.20;99.90;;;;;;5054840;28;20114;-78
2023/12/02 05:57:58;;;;;;;24.00;13.35;;;0.10;99.90;;;;;;5065655;28;20050;-81
2023/12/02 06:00:25;;;;;;;24.10;14.23;;;0.10;99.90;;;;;;5038017;28;20045;-78
2023/12/02 06:02:52;;;;;;;23.35;14.40;;;0.10;99.90;;;;;;5047886;28;20103;-78
2023/12/02 06:05:18;;;;;;;20.48;12.65;;;0.10;99.90;;;;;;5048673;28;20090;-81
2023/12/02 06:07:45;;;;;;;24.50;14.55;;;0.10;99.90;;;;;;5037350;28;20133;-80
2023/12/02 06:10:12;;;;;;;23.02;14.00;;;0.10;99.90;;;;;;5052076;28;20045;-78
2023/12/02 06:12:39;;;;;;;22.60;13.82;;;0.10;99.90;;;;;;5050260;28;20102;-79
2023/12/02 06:15:09;;;;;;;22.23;13.80;;;0.10;99.90;;;;;;5038312;28;20123;-80
2023/12/02 06:17:36;;;;;;;24.80;14.27;;;0.10;99.90;;;;;;5035219;28;20049;-79
2023/12/02 06:20:05;;;;;;;22.92;14.00;;;0.10;99.90;;;;;;5036740;28;20493;-79
2023/12/02 06:22:33;;;;;;;24.55;13.30;;;0.10;99.90;;;;;;5052735;28;20081;-81
2023/12/02 06:25:00;;;;;;;22.60;14.15;;;0.10;99.90;;;;;;5048753;28;20100;-80
2023/12/02 06:27:27;;;;;;;23.58;14.20;;;0.10;99.90;;;;;;5052867;28;20041;-79
2023/12/02 06:29:54;;;;;;;21.98;13.57;;;0.10;99.90;;;;;;5055635;28;20045;-81
2023/12/02 06:32:21;;;;;;;23.05;13.68;;;0.10;99.90;;;;;;5051476;28;20056;-79
2023/12/02 06:34:48;;;;;;;23.05;12.52;;;0.10;99.90;;;;;;5048726;28;20045;-81
2023/12/02 06:37:15;;;;;;;22.73;12.80;;;0.00;99.90;;;;;;5061342;28;20041;-80
2023/12/02 06:39:42;;;;;;;27.00;15.20;;;0.00;99.90;;;;;;5056119;28;20095;-79
2023/12/02 06:42:08;;;;;;;25.77;14.15;;;0.00;99.90;;;;;;5043138;28;20047;-81
2023/12/02 06:44:35;;;;;;;24.65;14.60;;;0.00;99.90;;;;;;5037461;28;20479;-81
2023/12/02 06:47:02;;;;;;;25.73;14.40;;;0.00;99.90;;;;;;5057100;28;20049;-82
2023/12/02 06:49:29;;;;;;;25.60;14.90;;;0.00;99.90;;;;;;5059755;28;20049;-79
2023/12/02 06:51:56;;;;;;;24.55;13.75;;;0.00;99.90;;;;;;5052868;28;20053;-79
2023/12/02 06:54:23;;;;;;;25.13;14.30;;;-0.10;99.90;;;;;;5057031;28;20049;-81
2023/12/02 06:56:50;;;;;;;21.83;13.20;;;-0.10;99.90;;;;;;5054090;28;20056;-78
2023/12/02 06:59:17;;;;;;;16.65;10.90;;;-0.10;99.90;;;;;;5057444;28;20562;-83
2023/12/02 07:01:44;;;;;;;25.70;13.07;;;-0.20;99.90;;;;;;5055163;28;20056;-82
2023/12/02 07:04:12;;;;;;;16.67;10.50;;;-0.30;99.90;;;;;;5062872;28;20048;-80
2023/12/02 07:06:40;;;;;;;21.50;12.50;;;-0.30;99.90;;;;;;5056066;28;20279;-79
2023/12/02 07:09:08;;;;;;;26.52;15.27;;;-0.30;99.90;;;;;;5055866;28;20052;-80
2023/12/02 07:11:35;;;;;;;23.67;12.93;;;-0.20;99.90;;;;;;5054924;28;20045;-77
2023/12/02 07:14:02;;;;;;;23.90;13.43;;;-0.20;99.90;;;;;;5053753;28;20052;-79
2023/12/02 07:16:29;;;;;;;25.75;14.77;;;-0.20;99.90;;;;;;5054897;28;20489;-80
2023/12/02 07:18:58;;;;;;;20.52;13.23;;;-0.20;99.90;;;;;;5050766;28;20072;-78
2023/12/02 07:21:25;;;;;;;23.20;14.95;;;-0.30;99.90;;;;;;5055519;28;20076;-79
2023/12/02 07:23:52;;;;;;;21.23;12.98;;;-0.30;99.90;;;;;;5028533;28;20076;-79
2023/12/02 07:26:19;;;;;;;24.48;14.38;;;-0.30;99.90;;;;;;5056084;28;20485;-79
2023/12/02 07:28:45;;;;;;;24.00;14.85;;;-0.30;99.90;;;;;;5049655;28;20053;-80
2023/12/02 07:31:13;;;;;;;25.92;15.57;;;-0.30;99.90;;;;;;5052191;28;20072;-79
2023/12/02 07:33:40;;;;;;;22.40;12.13;;;-0.30;99.90;;;;;;5033484;28;20079;-79
2023/12/02 07:36:08;;;;;;;25.30;14.05;;;-0.30;99.90;;;;;;5037579;28;20152;-77
2023/12/02 07:38:35;;;;;;;21.20;13.40;;;-0.40;99.90;;;;;;5050611;28;20071;-79
2023/12/02 07:41:02;;;;;;;26.17;15.73;;;-0.40;99.90;;;;;;5056748;28;20088;-80
2023/12/02 07:43:29;;;;;;;25.35;14.25;;;-0.40;99.90;;;;;;5054032;28;20041;-79
2023/12/02 07:45:55;;;;;;;19.92;13.07;;;-0.50;99.90;;;;;;5029872;28;20104;-80
2023/12/02 07:48:22;;;;;;;22.60;14.65;;;-0.60;99.90;;;;;;5051819;28;20428;-81
2023/12/02 07:50:49;;;;;;;26.38;15.95;;;-0.50;99.90;;;;;;5054414;28;20063;-79
2023/12/02 07:53:16;;;;;;;24.10;14.15;;;-0.50;99.90;;;;;;5059926;28;20041;-79
2023/12/02 07:55:43;;;;;;;27.83;16.05;;;-0.50;99.90;;;;;;5063552;28;20056;-78
2023/12/02 07:58:12;;;;;;;29.15;17.13;;;-0.50;99.90;;;;;;5061312;28;20132;-80
2023/12/02 08:00:39;;;;;;;27.92;16.10;;;-0.50;99.90;;;;;;5050942;28;20045;-81
2023/12/02 08:03:06;;;;;;;25.98;15.25;;;-0.50;99.90;;;;;;5052678;28;20049;-79
2023/12/02 08:05:32;;;;;;;21.48;13.32;;;-0.50;99.90;;;;;;5058090;28;20432;-79
2023/12/02 08:08:03;;;;;;;24.85;14.40;;;-0.50;99.90;;;;;;5066740;28;20045;-79
2023/12/02 08:10:30;;;;;;;25.10;14.23;;;-0.50;99.90;;;;;;5068418;28;20067;-79
2023/12/02 08:12:56;;;;;;;26.50;14.50;;;-0.50;99.90;;;;;;5051550;28;20135;-77
2023/12/02 08:15:23;;;;;;;22.95;14.55;;;-0.50;99.90;;;;;;5068404;28;20095;-77
2023/12/02 08:17:50;;;;;;;23.83;13.52;;;-0.50;99.90;;;;;;5066259;28;20094;-78
2023/12/02 08:20:17;;;;;;;27.48;15.68;;;-0.50;99.90;;;;;;5054111;28;20040;-78
2023/12/02 08:22:43;;;;;;;23.60;13.60;;;-0.50;99.90;;;;;;5068499;28;20045;-80
2023/12/02 08:25:11;;;;;;;28.33;15.95;;;-0.50;99.90;;;;;;5068367;28;20084;-77
2023/12/02 08:27:37;;;;;;;23.30;13.90;;;-0.50;99.90;;;;;;5058514;28;20052;-78
2023/12/02 08:30:07;;;;;;;21.67;14.32;;;-0.50;99.90;;;;;;5052286;28;20075;-79
2023/12/02 08:32:33;;;;;;;20.83;13.32;;;-0.50;99.90;;;;;;5067264;28;20098;-80
2023/12/02 08:35:00;;;;;;;22.60;13.90;;;-0.50;99.90;;;;;;5068124;28;20064;-79
2023/12/02 08:37:27;;;;;;;22.67;14.45;;;-0.50;99.90;;;;;;5070115;28;20077;-81
2023/12/02 08:39:54;;;;;;;22.50;12.93;;;-0.50;99.90;;;;;;5066109;28;20102;-78
2023/12/02 08:42:21;;;;;;;29.80;17.10;;;-0.50;99.90;;;;;;5049296;28;20053;-81
2023/12/02 08:44:47;;;;;;;25.25;14.95;;;-0.50;99.90;;;;;;5070016;28;20045;-80
2023/12/02 08:47:14;;;;;;;21.92;14.27;;;-0.50;99.90;;;;;;5045123;28;20054;-77
2023/12/02 08:49:41;;;;;;;22.02;13.43;;;-0.50;99.90;;;;;;5065429;28;20114;-80
2023/12/02 08:52:07;;;;;;;23.05;13.23;;;-0.50;99.90;;;;;;5062138;28;20059;-79
2023/12/02 08:54:34;;;;;;;18.13;11.43;;;-0.50;99.90;;;;;;5068105;28;20111;-78
2023/12/02 08:57:01;;;;;;;24.95;14.25;;;-0.60;99.90;;;;;;5064673;28;20044;-82
2023/12/02 08:59:27;;;;;;;22.33;13.85;;;-0.60;99.90;;;;;;5067089;28;20049;-79
2023/12/02 09:01:55;;;;;;;22.65;11.35;;;-0.70;99.90;;;;;;5063152;28;20110;-78
2023/12/02 09:04:21;;;;;;;21.42;13.40;;;-0.80;99.90;;;;;;5063263;28;20076;-81
2023/12/02 09:06:48;;;;;;;22.65;13.48;;;-0.80;99.90;;;;;;5064595;28;20068;-80
2023/12/02 09:09:15;;;;;;;19.25;11.57;;;-0.80;99.90;;;;;;5068813;28;20079;-78
2023/12/02 09:11:42;;;;;;;23.80;14.82;;;-0.80;99.90;;;;;;5062412;28;20037;-81
2023/12/02 09:14:09;;;;;;;24.38;14.27;;;-0.80;99.90;;;;;;5057757;28;20053;-81
2023/12/02 09:16:35;;;;;;;21.52;13.38;;;-0.80;99.90;;;;;;5068798;28;20480;-80
2023/12/02 09:19:21;;;;;;;20.80;11.43;;;-0.80;99.90;;;;;;5060993;28;20087;-78
2023/12/02 09:21:48;;;;;;;22.70;13.30;;;-0.90;99.90;;;;;;5039120;28;20071;-81
2023/12/02 09:24:33;;;;;;;20.35;13.77;;;-0.80;99.90;;;;;;5064637;28;20045;-81
2023/12/02 09:27:07;;;;;;;19.85;12.77;;;-0.80;99.90;;;;;;5061926;28;20324;-82
2023/12/02 09:29:37;;;;;;;20.48;14.00;;;-0.80;99.90;;;;;;5049601;28;20052;-79
2023/12/02 09:32:29;;;;;;;23.63;12.98;;;-0.80;99.90;;;;;;5039486;28;20054;-83
2023/12/02 09:34:59;;;;;;;20.70;12.00;;;-0.80;99.90;;;;;;5044493;28;20052;-77
2023/12/02 09:37:51;;;;;;;23.13;13.07;;;-0.80;99.90;;;;;;5059247;28;20060;-77
2023/12/02 09:40:34;;;;;;;19.65;12.07;;;-0.70;99.90;;;;;;5036771;28;20096;-78
2023/12/02 09:43:13;;;;;;;20.30;12.55;;;-0.70;99.90;;;;;;5056151;28;20072;-82
2023/12/02 09:45:52;;;;;;;18.90;12.50;;;-0.70;99.90;;;;;;5063371;28;20041;-80
2023/12/02 09:48:27;;;;;;;22.45;12.40;;;-0.80;99.90;;;;;;5064413;28;20037;-78
2023/12/02 09:51:01;;;;;;;21.70;13.27;;;-0.70;99.90;;;;;;5058497;28;20069;-78
2023/12/02 09:54:04;;;;;;;19.20;12.70;;;-0.70;99.90;;;;;;5061407;28;20079;-80
2023/12/02 09:56:40;;;;;;;24.65;13.13;;;-0.70;99.90;;;;;;5046422;28;20041;-80
2023/12/02 09:59:17;;;;;;;21.90;12.68;;;-0.70;99.90;;;;;;5062356;28;20422;-82
2023/12/02 10:02:08;;;;;;;19.45;11.98;;;-0.80;99.90;;;;;;5065890;28;20040;-80
2023/12/02 10:05:08;;;;;;;22.10;13.05;;;-0.70;99.90;;;;;;5061187;28;20113;-78
2023/12/02 10:07:47;;;;;;;23.48;13.23;;;-0.70;99.90;;;;;;5031388;28;20037;-78
2023/12/02 10:10:22;;;;;;;19.92;13.23;;;-0.70;99.90;;;;;;5068063;28;20049;-79
2023/12/02 10:13:07;;;;;;;25.35;14.02;;;-0.70;99.90;;;;;;5060782;28;20048;-80
2023/12/02 10:15:36;;;;;;;21.45;13.57;;;-0.70;99.90;;;;;;5067421;28;20049;-79
2023/12/02 10:18:11;;;;;;;17.90;11.97;;;-0.70;99.90;;;;;;5052188;28;20049;-79
2023/12/02 10:20:41;;;;;;;20.88;12.23;;;-0.70;99.90;;;;;;5041636;28;20056;-80
2023/12/02 10:23:34;;;;;;;20.17;12.00;;;-0.70;99.90;;;;;;5053262;28;20076;-80
2023/12/02 10:26:13;;;;;;;16.98;10.73;;;-0.70;99.90;;;;;;5048051;28;20041;-79
2023/12/02 10:29:05;;;;;;;18.63;11.73;;;-0.80;99.90;;;;;;5024868;28;20508;-80
2023/12/02 10:31:35;;;;;;;22.25;12.85;;;-0.80;99.90;;;;;;5044965;28;20397;-80
2023/12/02 10:34:21;;;;;;;20.50;12.65;;;-0.80;99.90;;;;;;5039995;28;20064;-80
2023/12/02 10:36:51;;;;;;;24.05;13.55;;;-0.80;99.90;;;;;;5034797;28;20057;-80
2023/12/02 10:39:40;;;;;;;22.17;11.75;;;-0.80;99.90;;;;;;5030393;28;20543;-80
2023/12/02 10:42:16;;;;;;;20.38;11.65;;;-0.80;99.90;;;;;;5048357;28;20049;-80
2023/12/02 10:44:48;;;;;;;20.13;11.60;;;-0.80;99.90;;;;;;5039868;28;20052;-79
2023/12/02 10:47:17;;;;;;;21.52;12.43;;;-0.80;99.90;;;;;;5051810;28;20119;-82
2023/12/02 10:49:46;;;;;;;18.33;11.30;;;-0.80;99.90;;;;;;5053099;28;20049;-78
2023/12/02 10:52:14;;;;;;;20.25;12.48;;;-0.90;99.90;;;;;;5050767;28;20511;-81
2023/12/02 10:54:49;;;;;;;18.00;11.20;;;-0.90;99.90;;;;;;5050115;28;20183;-79
2023/12/02 10:57:19;;;;;;;20.92;13.07;;;-0.90;99.90;;;;;;5050625;28;20489;-82
2023/12/02 11:00:11;;;;;;;20.98;11.88;;;-0.90;99.90;;;;;;5048387;28;20041;-83
2023/12/02 11:02:41;;;;;;;18.75;12.35;;;-0.90;99.90;;;;;;5050914;28;20040;-81
2023/12/02 11:05:18;;;;;;;20.50;12.38;;;-0.90;99.90;;;;;;5048916;28;20102;-82
2023/12/02 11:07:55;;;;;;;20.73;13.00;;;-0.90;99.90;;;;;;5052184;28;20041;-80
2023/12/02 11:10:42;;;;;;;21.17;12.55;;;-0.80;99.90;;;;;;5054242;28;20085;-82
2023/12/02 11:13:12;;;;;;;16.23;10.80;;;-0.90;99.90;;;;;;5048065;28;20045;-81
2023/12/02 11:16:02;;;;;;;;;;;-0.90;99.90;;;;;;5035975;28;20049;-82
2023/12/02 11:18:59;;;;;;;18.15;11.27;;;-0.80;99.90;;;;;;5039415;28;20289;-80
2023/12/02 11:22:00;;;;;;;18.30;10.57;;;-0.80;99.90;;;;;;5049274;28;20057;-80
2023/12/02 11:25:06;;;;;;;17.30;10.93;;;-0.80;99.90;;;;;;5033728;28;20472;-81
2023/12/02 11:27:59;;;;;;;19.42;12.02;;;-0.90;99.90;;;;;;5018578;28;20041;-81
2023/12/02 11:30:52;;;;;;;20.65;12.43;;;-0.80;99.90;;;;;;5049104;28;20053;-80
2023/12/02 11:33:59;;;;;;;18.05;11.00;;;-0.80;99.90;;;;;;5046870;28;20053;-82
2023/12/02 11:36:34;;;;;;;20.67;12.82;;;-0.80;99.90;;;;;;5048096;28;20057;-79
2023/12/02 11:39:37;;;;;;;19.60;11.55;;;-0.80;99.90;;;;;;5049033;28;20080;-78
2023/12/02 11:42:16;;;;;;;17.70;10.95;;;-0.70;99.90;;;;;;5034954;28;20037;-82
2023/12/02 11:44:45;;;;;;;17.92;11.70;;;-0.70;99.90;;;;;;5047893;28;20389;-82
2023/12/02 11:47:31;;;;;;;16.02;10.82;;;-0.70;99.90;;;;;;5048776;28;20493;-80
2023/12/02 11:49:58;;;;;;;18.30;11.77;;;-0.70;99.90;;;;;;5045140;28;20102;-80
2023/12/02 11:52:37;;;;;;;19.65;12.07;;;-0.70;99.90;;;;;;5052108;28;20054;-81
2023/12/02 11:55:10;;;;;;;17.73;11.63;;;-0.70;99.90;;;;;;5054439;28;20054;-79
2023/12/02 11:57:46;;;;;;;17.95;11.88;;;-0.60;99.90;;;;;;5056340;28;20045;-80
2023/12/02 12:00:24;;;;;;;20.33;12.98;;;-0.60;99.90;;;;;;5054669;28;20500;-80
2023/12/02 12:03:18;;;;;;;23.70;14.23;;;-0.60;99.90;;;;;;5032218;28;20044;-78
2023/12/02 12:05:54;;;;;;;21.02;13.00;;;-0.60;99.90;;;;;;5051161;28;20444;-80
2023/12/02 12:08:22;;;;;;;21.70;14.30;;;-0.50;99.90;;;;;;5051830;28;20055;-81
2023/12/02 12:10:53;;;;;;;18.10;11.88;;;-0.50;99.90;;;;;;5057977;28;20059;-79
2023/12/02 12:13:21;;;;;;;19.90;13.05;;;-0.50;99.90;;;;;;5033117;28;20049;-79
2023/12/02 12:15:48;;;;;;;18.52;12.18;;;-0.40;99.90;;;;;;5061622;28;20079;-82
2023/12/02 12:18:17;;;;;;;18.48;11.15;;;-0.50;99.90;;;;;;5062000;28;20056;-79
2023/12/02 12:20:44;;;;;;;19.40;12.27;;;-0.50;99.90;;;;;;5063113;28;20056;-81
2023/12/02 12:23:11;;;;;;;14.90;10.48;;;-0.40;99.90;;;;;;5041254;28;20048;-79
2023/12/02 12:25:38;;;;;;;16.63;12.18;;;-0.40;99.90;;;;;;5040211;28;20051;-79
2023/12/02 12:28:06;;;;;;;18.83;11.50;;;-0.40;99.90;;;;;;5043216;28;20052;-80
2023/12/02 12:30:46;;;;;;;15.98;10.73;;;-0.40;99.90;;;;;;5044806;28;20092;-82
2023/12/02 12:33:15;;;;;;;15.30;11.45;;;-0.40;99.90;;;;;;5054473;28;20044;-79
2023/12/02 12:35:42;;;;;;;18.02;11.88;;;-0.40;99.90;;;;;;5053980;28;20132;-79
2023/12/02 12:38:10;;;;;;;20.02;11.95;;;-0.40;99.90;;;;;;5053771;28;20053;-80
2023/12/02 12:40:39;;;;;;;19.45;11.70;;;-0.30;99.90;;;;;;5056199;28;20045;-79
2023/12/02 12:43:12;;;;;;;19.40;11.00;;;-0.30;99.90;;;;;;5054206;28;20045;-79
2023/12/02 12:45:39;;;;;;;15.15;9.75;;;-0.40;99.90;;;;;;5052072;28;20208;-81
2023/12/02 12:48:07;;;;;;;16.00;9.52;;;-0.40;99.90;;;;;;5049585;28;20048;-81